COMO2: Grand River, Commerce, OK

                                SHEF ID:       COMO2     Neosho River nr Commerce, OK
STATION TYPE:
Regulating: Stage = 15.00, Flow = 21598

PRECIP STAGE STAGE(2) RIV-FLOW BAT-LOAD
in ft ft cfs volt
Ccp-Rev Ccp-Rev Ccp-Rev Ccp-Rev Ccp-Rev
(America/Chicago)
04/27 00:00 0.00 4.52 ---- 3594 12.36
04/27 01:00 0.00 4.49 ---- 3520 12.34
04/27 02:00 0.00 4.45 ---- 3421 12.34
04/27 03:00 0.00 4.43 ---- 3372 12.30
04/27 04:00 0.00 4.40 ---- 3298 12.28
04/27 05:00 0.00 4.40 ---- 3298 12.27
04/27 06:00 0.00 4.45 ---- 3421 12.26
04/27 07:00 0.00 4.68 ---- 3989 12.24
04/27 08:00 0.00 5.18 ---- 5065 12.24
04/27 09:00 0.00 6.01 ---- 6387 12.65
04/27 10:00 0.00 7.05 ---- 8043 13.09
04/27 11:00 0.00 8.16 ---- 9804 13.16
04/27 12:00 0.00 9.12 ---- 11322 13.12
04/27 13:00 0.00 9.90 ---- 12563 12.93
04/27 14:00 0.00 10.49 ---- 13582 12.77
04/27 15:00 0.00 10.91 ---- 14321 12.70
04/27 16:00 0.00 11.21 ---- 14850 12.60
04/27 17:00 0.00 11.36 ---- 15115 12.56
04/27 18:00 0.00 11.43 ---- 15239 12.55
04/27 19:00 0.00 11.45 ---- 15274 12.54
04/27 20:00 0.00 11.42 ---- 15221 12.46
04/27 21:00 0.00 11.37 ---- 15133 12.40
04/27 22:00 0.00 11.28 ---- 14974 12.38
04/27 23:00 0.00 11.17 ---- 14780 12.37
Data processed at Tue 28Apr2026 04:36 GMT

NOTICE: If you are parsing this page

Please convert to using our Data API. Starting early 2026 we will be migrating to: https://water.usace.army.mil with modern pages rendered in JavaScript. When this migration completes you will no longer be able to scrape this page! CWMSDataAPI (CDA)

Timeseries IDs (TSIDs)

TSIDs used from left to right in the data table
COMM.Precip-Inc.Total.1Hour.1Hour.Ccp-Rev
COMM.Stage.Inst.1Hour.0.Ccp-Rev
COMM.Stage-Alt.Inst.1Hour.0.Ccp-Rev
COMM.Flow.Inst.1Hour.0.Ccp-Rev
COMM.Volt-Battery Load.Inst.1Hour.0.Ccp-Rev

                            

All information presented herein is the property of the government of the United States of America and may be revised or deleted at any time without prior notice. Dissemination of this information without the expressed written consent of the Public Affairs Office, Tulsa District U.S. Army Corps of Engineers is strictly prohibited. These data are gathered electronically and, as presented, have NOT undergone any form of quality control. These data are NOT guaranteed to be valid or correct.